Pagina principale
METAR-TAF:

METAR-TAF

Aeroporti :

Saint-Brieuc, Francia

latitudine: 48-32N, longitudine: 002-51W, altezza: 138 m

Osservazione

Il bollettino è stato emesso 23 minuti fa, alle 19:00 UTC
Vento 10 kt da ovest/sud-ovest, variando fra sud/sud-ovest e ovest
Temperature 8°C
Umidità 76%
Pressione 1010 hPa
Visibilità 10 km o più
Poco nuvoloso ad un'altezza di 2700 ft
Nuvoloso ad un'altezza di 20000 ft
Cielo coperto ad un'altezza di 23000 ft

METAR: LFRT 161900Z AUTO 24010KT 200V260 9999 FEW027 BKN200 OVC230 08/04 Q1010

Ora: 20:23 (19:23 UTC)


TAF: mancante

Osservazioni e previsioni meteorologiche di più di 4000 aeroporti (messaggi METAR e TAF).

Le stazioni disponibili sono rappresentate dai dischi gialli e rossi sulla carta.

Puntare il mouse per vedere il nome della stazione.

Clicca sopra per visualizzare le osservazioni e previsioni meteorologiche.

Per cambiare la mappa : fare clic sui pulsanti verdi con una croce nera per ingrandire, il pulsante verde con un trattino per diminuire, o sulla freccia verde per le mappe adiacenti.


METAR-TAF: